sensor_id;sensor_type;location;lat;lon;timestamp;pressure;altitude;pressure_sealevel;temperature;humidity
59168;BME280;44948;55.046;73.266;2022-10-30T00:00:00;101278.84;;;-5.61;81.93
59168;BME280;44948;55.046;73.266;2022-10-30T00:01:42;101280.56;;;-5.60;81.77
59168;BME280;44948;55.046;73.266;2022-10-30T00:03:25;101242.03;;;-5.80;82.20
59168;BME280;44948;55.046;73.266;2022-10-30T00:05:07;101235.19;;;-5.82;81.71
59168;BME280;44948;55.046;73.266;2022-10-30T00:06:50;101269.50;;;-5.58;82.20
59168;BME280;44948;55.046;73.266;2022-10-30T00:08:32;101249.84;;;-5.66;81.92
59168;BME280;44948;55.046;73.266;2022-10-30T00:10:16;101264.47;;;-5.53;81.83
59168;BME280;44948;55.046;73.266;2022-10-30T00:11:59;101262.72;;;-5.56;81.33
59168;BME280;44948;55.046;73.266;2022-10-30T00:13:42;101265.22;;;-5.62;81.24
59168;BME280;44948;55.046;73.266;2022-10-30T00:15:25;101235.94;;;-5.90;81.41
59168;BME280;44948;55.046;73.266;2022-10-30T00:17:07;101263.47;;;-5.67;81.85
59168;BME280;44948;55.046;73.266;2022-10-30T00:18:50;101266.00;;;-5.69;81.60
59168;BME280;44948;55.046;73.266;2022-10-30T00:20:35;101251.53;;;-5.68;81.64
59168;BME280;44948;55.046;73.266;2022-10-30T00:22:17;101258.28;;;-5.70;81.81
59168;BME280;44948;55.046;73.266;2022-10-30T00:24:00;101219.72;;;-5.93;82.04
59168;BME280;44948;55.046;73.266;2022-10-30T00:25:42;101256.56;;;-5.74;82.13
59168;BME280;44948;55.046;73.266;2022-10-30T00:27:24;101244.59;;;-5.78;82.62
59168;BME280;44948;55.046;73.266;2022-10-30T00:29:06;101238.59;;;-5.82;82.12
59168;BME280;44948;55.046;73.266;2022-10-30T00:30:50;101242.06;;;-5.77;82.30
59168;BME280;44948;55.046;73.266;2022-10-30T00:32:33;101239.47;;;-5.78;82.55
59168;BME280;44948;55.046;73.266;2022-10-30T00:34:16;101206.88;;;-6.01;82.71
59168;BME280;44948;55.046;73.266;2022-10-30T00:35:58;101244.59;;;-5.78;82.46
59168;BME280;44948;55.046;73.266;2022-10-30T00:37:41;101231.78;;;-5.81;82.20
59168;BME280;44948;55.046;73.266;2022-10-30T00:39:24;101222.31;;;-5.89;82.40
59168;BME280;44948;55.046;73.266;2022-10-30T00:41:15;101228.34;;;-5.83;82.63
59168;BME280;44948;55.046;73.266;2022-10-30T00:42:58;101233.50;;;-5.79;82.31
59168;BME280;44948;55.046;73.266;2022-10-30T00:46:37;101222.41;;;-5.82;82.18
59168;BME280;44948;55.046;73.266;2022-10-30T00:48:24;101192.41;;;-6.00;82.45
59168;BME280;44948;55.046;73.266;2022-10-30T00:50:11;101202.69;;;-5.94;82.27
59168;BME280;44948;55.046;73.266;2022-10-30T00:51:54;101212.19;;;-5.82;82.21
59168;BME280;44948;55.046;73.266;2022-10-30T00:53:37;101216.47;;;-5.80;82.33
59168;BME280;44948;55.046;73.266;2022-10-30T00:55:33;101206.13;;;-5.91;81.73
59168;BME280;44948;55.046;73.266;2022-10-30T00:57:18;101104.91;;;-6.57;81.88
59168;BME280;44948;55.046;73.266;2022-10-30T00:59:05;101212.09;;;-5.89;82.21
59168;BME280;44948;55.046;73.266;2022-10-30T01:00:51;101211.22;;;-5.92;82.86
59168;BME280;44948;55.046;73.266;2022-10-30T01:02:35;101217.16;;;-5.95;82.59
59168;BME280;44948;55.046;73.266;2022-10-30T01:04:21;101165.81;;;-6.19;82.57
59168;BME280;44948;55.046;73.266;2022-10-30T01:06:07;101179.41;;;-6.20;82.79
59168;BME280;44948;55.046;73.266;2022-10-30T01:07:53;101188.06;;;-6.06;82.82
59168;BME280;44948;55.046;73.266;2022-10-30T01:09:36;101206.91;;;-5.98;83.08
59168;BME280;44948;55.046;73.266;2022-10-30T01:11:20;101206.88;;;-5.99;83.07
59168;BME280;44948;55.046;73.266;2022-10-30T01:13:02;101201.69;;;-6.04;82.55
59168;BME280;44948;55.046;73.266;2022-10-30T01:14:49;101186.28;;;-6.13;82.70
59168;BME280;44948;55.046;73.266;2022-10-30T01:18:39;101198.28;;;-6.06;82.69
59168;BME280;44948;55.046;73.266;2022-10-30T01:25:16;101171.56;;;-6.34;82.31
59168;BME280;44948;55.046;73.266;2022-10-30T01:27:41;101201.59;;;-6.16;82.47
59168;BME280;44948;55.046;73.266;2022-10-30T01:29:49;101193.00;;;-6.21;82.56
59168;BME280;44948;55.046;73.266;2022-10-30T01:39:48;101176.66;;;-6.37;83.03
59168;BME280;44948;55.046;73.266;2022-10-30T01:41:31;101174.13;;;-6.35;83.11
59168;BME280;44948;55.046;73.266;2022-10-30T01:43:15;101176.69;;;-6.32;82.76
59168;BME280;44948;55.046;73.266;2022-10-30T01:44:58;101175.88;;;-6.30;83.14
59168;BME280;44948;55.046;73.266;2022-10-30T01:47:19;101174.88;;;-6.41;82.94
59168;BME280;44948;55.046;73.266;2022-10-30T01:57:44;101155.94;;;-6.58;83.12
59168;BME280;44948;55.046;73.266;2022-10-30T02:01:16;101139.69;;;-6.65;83.23
59168;BME280;44948;55.046;73.266;2022-10-30T02:02:59;101153.25;;;-6.69;83.35
59168;BME280;44948;55.046;73.266;2022-10-30T02:04:43;101152.50;;;-6.62;83.40
59168;BME280;44948;55.046;73.266;2022-10-30T02:06:25;101142.28;;;-6.63;83.53
59168;BME280;44948;55.046;73.266;2022-10-30T02:08:08;101147.38;;;-6.63;83.45
59168;BME280;44948;55.046;73.266;2022-10-30T02:09:53;101145.66;;;-6.64;83.06
59168;BME280;44948;55.046;73.266;2022-10-30T02:11:37;101146.53;;;-6.64;83.12
59168;BME280;44948;55.046;73.266;2022-10-30T02:13:21;101134.59;;;-6.65;83.32
59168;BME280;44948;55.046;73.266;2022-10-30T02:15:04;101133.69;;;-6.70;83.39
59168;BME280;44948;55.046;73.266;2022-10-30T02:16:49;101142.91;;;-6.78;83.51
59168;BME280;44948;55.046;73.266;2022-10-30T02:18:34;101133.50;;;-6.84;83.25
59168;BME280;44948;55.046;73.266;2022-10-30T02:20:21;101131.78;;;-6.85;83.11
59168;BME280;44948;55.046;73.266;2022-10-30T02:22:05;101129.22;;;-6.86;83.64
59168;BME280;44948;55.046;73.266;2022-10-30T02:23:47;101126.59;;;-6.89;83.58
59168;BME280;44948;55.046;73.266;2022-10-30T02:25:30;101125.75;;;-6.91;83.73
59168;BME280;44948;55.046;73.266;2022-10-30T02:27:12;101106.09;;;-7.01;83.66
59168;BME280;44948;55.046;73.266;2022-10-30T02:28:55;101117.28;;;-6.90;83.92
59168;BME280;44948;55.046;73.266;2022-10-30T02:30:38;101124.06;;;-6.89;83.42
59168;BME280;44948;55.046;73.266;2022-10-30T02:32:21;101122.41;;;-6.87;83.61
59168;BME280;44948;55.046;73.266;2022-10-30T02:34:04;101122.41;;;-6.87;83.34
59168;BME280;44948;55.046;73.266;2022-10-30T02:35:47;101119.88;;;-6.86;83.65
59168;BME280;44948;55.046;73.266;2022-10-30T02:37:30;101106.28;;;-6.85;83.64
59168;BME280;44948;55.046;73.266;2022-10-30T02:39:16;101110.72;;;-6.70;83.26
59168;BME280;44948;55.046;73.266;2022-10-30T02:41:00;101109.94;;;-6.64;83.38
59168;BME280;44948;55.046;73.266;2022-10-30T02:42:44;101111.66;;;-6.62;83.20
59168;BME280;44948;55.046;73.266;2022-10-30T02:44:26;101111.72;;;-6.57;83.21
59168;BME280;44948;55.046;73.266;2022-10-30T02:46:09;101116.91;;;-6.53;82.82
59168;BME280;44948;55.046;73.266;2022-10-30T02:47:52;101105.91;;;-6.46;82.70
59168;BME280;44948;55.046;73.266;2022-10-30T02:49:35;101111.06;;;-6.41;83.13
59168;BME280;44948;55.046;73.266;2022-10-30T02:51:17;101117.88;;;-6.40;82.68
59168;BME280;44948;55.046;73.266;2022-10-30T02:53:00;101108.50;;;-6.41;83.02
59168;BME280;44948;55.046;73.266;2022-10-30T02:54:42;101064.03;;;-6.64;83.06
59168;BME280;44948;55.046;73.266;2022-10-30T02:56:25;101091.38;;;-6.54;82.81
59168;BME280;44948;55.046;73.266;2022-10-30T02:58:08;101106.91;;;-6.36;83.19
59168;BME280;44948;55.046;73.266;2022-10-30T02:59:51;101111.91;;;-6.42;82.62
59168;BME280;44948;55.046;73.266;2022-10-30T03:01:33;101106.88;;;-6.37;82.83
59168;BME280;44948;55.046;73.266;2022-10-30T03:03:16;101115.47;;;-6.29;83.19
59168;BME280;44948;55.046;73.266;2022-10-30T03:05:00;101105.25;;;-6.31;82.57
59168;BME280;44948;55.046;73.266;2022-10-30T03:06:43;101113.75;;;-6.30;82.89
59168;BME280;44948;55.046;73.266;2022-10-30T03:08:25;101109.53;;;-6.27;82.38
59168;BME280;44948;55.046;73.266;2022-10-30T03:10:08;101082.94;;;-6.46;82.88
59168;BME280;44948;55.046;73.266;2022-10-30T03:11:51;101110.22;;;-6.40;82.96
59168;BME280;44948;55.046;73.266;2022-10-30T03:13:34;101113.75;;;-6.32;82.91
59168;BME280;44948;55.046;73.266;2022-10-30T03:15:16;101105.91;;;-6.46;82.92
59168;BME280;44948;55.046;73.266;2022-10-30T03:16:58;101100.78;;;-6.49;82.89
59168;BME280;44948;55.046;73.266;2022-10-30T03:18:43;101102.66;;;-6.32;82.87
59168;BME280;44948;55.046;73.266;2022-10-30T03:20:26;101102.66;;;-6.32;82.90
59168;BME280;44948;55.046;73.266;2022-10-30T03:22:08;101110.41;;;-6.23;83.08
59168;BME280;44948;55.046;73.266;2022-10-30T03:23:53;101100.25;;;-6.20;82.94
59168;BME280;44948;55.046;73.266;2022-10-30T03:25:37;101096.72;;;-6.33;82.82
59168;BME280;44948;55.046;73.266;2022-10-30T03:27:19;101098.44;;;-6.29;83.19
59168;BME280;44948;55.046;73.266;2022-10-30T03:29:05;101095.03;;;-6.29;83.35
59168;BME280;44948;55.046;73.266;2022-10-30T03:30:50;101102.75;;;-6.23;83.28
59168;BME280;44948;55.046;73.266;2022-10-30T03:32:32;101088.34;;;-6.20;83.06
59168;BME280;44948;55.046;73.266;2022-10-30T03:34:15;101055.75;;;-6.43;82.78
59168;BME280;44948;55.046;73.266;2022-10-30T03:35:58;101079.03;;;-6.16;83.30
59168;BME280;44948;55.046;73.266;2022-10-30T03:37:41;101083.34;;;-6.06;83.21
59168;BME280;44948;55.046;73.266;2022-10-30T03:39:24;101079.88;;;-6.16;82.93
59168;BME280;44948;55.046;73.266;2022-10-30T03:41:06;101082.47;;;-6.11;83.07
59168;BME280;44948;55.046;73.266;2022-10-30T03:42:49;101085.94;;;-6.04;82.69
59168;BME280;44948;55.046;73.266;2022-10-30T03:44:32;101091.03;;;-6.06;82.56
59168;BME280;44948;55.046;73.266;2022-10-30T03:46:14;101075.69;;;-6.06;83.13
59168;BME280;44948;55.046;73.266;2022-10-30T03:47:57;101044.84;;;-6.27;82.68
59168;BME280;44948;55.046;73.266;2022-10-30T03:49:39;101088.56;;;-5.97;83.12
59168;BME280;44948;55.046;73.266;2022-10-30T03:51:25;101081.75;;;-5.96;82.82
59168;BME280;44948;55.046;73.266;2022-10-30T03:53:08;101026.28;;;-6.11;82.95
59168;BME280;44948;55.046;73.266;2022-10-30T03:54:50;101075.13;;;-5.76;83.00
59168;BME280;44948;55.046;73.266;2022-10-30T03:56:35;101076.06;;;-5.66;82.60
59168;BME280;44948;55.046;73.266;2022-10-30T03:58:19;101074.38;;;-5.63;82.54
59168;BME280;44948;55.046;73.266;2022-10-30T04:00:04;101041.91;;;-5.74;82.38
59168;BME280;44948;55.046;73.266;2022-10-30T04:01:56;101076.94;;;-5.64;82.23
59168;BME280;44948;55.046;73.266;2022-10-30T04:03:38;101079.59;;;-5.52;82.36
59168;BME280;44948;55.046;73.266;2022-10-30T04:05:25;101071.94;;;-5.49;82.30
59168;BME280;44948;55.046;73.266;2022-10-30T04:07:10;101063.34;;;-5.60;82.38
59168;BME280;44948;55.046;73.266;2022-10-30T04:08:54;101071.03;;;-5.56;82.92
59168;BME280;44948;55.046;73.266;2022-10-30T04:10:36;101059.16;;;-5.49;82.40
59168;BME280;44948;55.046;73.266;2022-10-30T04:12:25;101062.69;;;-5.35;82.56
59168;BME280;44948;55.046;73.266;2022-10-30T04:14:07;101027.63;;;-5.49;81.93
59168;BME280;44948;55.046;73.266;2022-10-30T04:15:50;101065.28;;;-5.22;82.46
59168;BME280;44948;55.046;73.266;2022-10-30T04:17:34;100958.41;;;-5.85;82.10
59168;BME280;44948;55.046;73.266;2022-10-30T04:19:19;101050.88;;;-5.08;81.91
59168;BME280;44948;55.046;73.266;2022-10-30T04:21:01;101056.91;;;-5.02;81.98
59168;BME280;44948;55.046;73.266;2022-10-30T04:22:44;101033.81;;;-5.12;81.83
59168;BME280;44948;55.046;73.266;2022-10-30T04:24:32;101056.09;;;-4.93;82.11
59168;BME280;44948;55.046;73.266;2022-10-30T04:26:14;101061.25;;;-4.84;81.76
59168;BME280;44948;55.046;73.266;2022-10-30T04:28:00;101056.16;;;-4.72;81.66
59168;BME280;44948;55.046;73.266;2022-10-30T04:29:42;101047.66;;;-4.71;81.65
59168;BME280;44948;55.046;73.266;2022-10-30T04:31:25;101040.88;;;-4.56;81.56
59168;BME280;44948;55.046;73.266;2022-10-30T04:33:10;101051.16;;;-4.50;81.31
59168;BME280;44948;55.046;73.266;2022-10-30T04:34:54;101046.91;;;-4.45;80.94
59168;BME280;44948;55.046;73.266;2022-10-30T04:36:37;101008.44;;;-4.60;81.05
59168;BME280;44948;55.046;73.266;2022-10-30T04:38:19;100986.22;;;-4.77;80.62
59168;BME280;44948;55.046;73.266;2022-10-30T04:40:03;101035.78;;;-4.47;81.06
59168;BME280;44948;55.046;73.266;2022-10-30T04:41:54;101022.16;;;-4.43;80.78
59168;BME280;44948;55.046;73.266;2022-10-30T04:43:44;101028.16;;;-4.20;81.23
59168;BME280;44948;55.046;73.266;2022-10-30T04:45:29;101017.09;;;-4.19;80.72
59168;BME280;44948;55.046;73.266;2022-10-30T04:47:11;101013.63;;;-4.24;80.47
59168;BME280;44948;55.046;73.266;2022-10-30T04:48:55;101017.09;;;-4.00;80.04
59168;BME280;44948;55.046;73.266;2022-10-30T04:50:38;101026.47;;;-3.89;79.81
59168;BME280;44948;55.046;73.266;2022-10-30T04:52:20;101023.91;;;-3.90;79.47
59168;BME280;44948;55.046;73.266;2022-10-30T04:54:03;100994.03;;;-4.00;79.09
59168;BME280;44948;55.046;73.266;2022-10-30T04:55:52;100971.81;;;-3.91;79.51
59168;BME280;44948;55.046;73.266;2022-10-30T04:57:36;100955.56;;;-3.73;79.40
59168;BME280;44948;55.046;73.266;2022-10-30T04:59:19;101006.72;;;-3.20;78.86
59168;BME280;44948;55.046;73.266;2022-10-30T05:01:05;101003.25;;;-3.02;78.65
59168;BME280;44948;55.046;73.266;2022-10-30T05:02:48;101003.28;;;-2.99;77.41
59168;BME280;44948;55.046;73.266;2022-10-30T05:04:31;101000.66;;;-2.91;77.31
59168;BME280;44948;55.046;73.266;2022-10-30T05:06:21;100974.09;;;-2.87;76.91
59168;BME280;44948;55.046;73.266;2022-10-30T05:08:05;100946.69;;;-2.79;76.59
59168;BME280;44948;55.046;73.266;2022-10-30T05:09:48;100985.81;;;-2.39;75.98
59168;BME280;44948;55.046;73.266;2022-10-30T05:11:31;100981.41;;;-2.20;75.18
59168;BME280;44948;55.046;73.266;2022-10-30T05:13:13;100965.00;;;-2.02;75.15
59168;BME280;44948;55.046;73.266;2022-10-30T05:14:57;100968.28;;;-1.85;74.40
59168;BME280;44948;55.046;73.266;2022-10-30T05:16:39;100944.34;;;-1.90;74.09
59168;BME280;44948;55.046;73.266;2022-10-30T05:18:22;100978.38;;;-1.64;73.96
59168;BME280;44948;55.046;73.266;2022-10-30T05:20:06;100966.25;;;-1.49;73.38
59168;BME280;44948;55.046;73.266;2022-10-30T05:21:49;100963.63;;;-1.45;72.53
59168;BME280;44948;55.046;73.266;2022-10-30T05:23:32;100924.38;;;-1.64;71.81
59168;BME280;44948;55.046;73.266;2022-10-30T05:25:15;100926.84;;;-1.56;71.77
59168;BME280;44948;55.046;73.266;2022-10-30T05:26:57;100957.47;;;-1.35;71.48
59168;BME280;44948;55.046;73.266;2022-10-30T05:28:41;100924.41;;;-1.65;70.54
59168;BME280;44948;55.046;73.266;2022-10-30T05:30:25;100912.47;;;-1.74;70.17
59168;BME280;44948;55.046;73.266;2022-10-30T05:32:09;100952.56;;;-1.54;70.00
59168;BME280;44948;55.046;73.266;2022-10-30T05:33:54;100937.09;;;-1.51;69.84
59168;BME280;44948;55.046;73.266;2022-10-30T05:35:38;100941.34;;;-1.47;69.34
59168;BME280;44948;55.046;73.266;2022-10-30T05:37:21;100910.44;;;-1.44;70.27
59168;BME280;44948;55.046;73.266;2022-10-30T05:39:03;100900.16;;;-1.46;69.77
59168;BME280;44948;55.046;73.266;2022-10-30T05:40:50;100924.88;;;-1.34;68.65
59168;BME280;44948;55.046;73.266;2022-10-30T05:42:32;100919.19;;;-1.59;67.93
59168;BME280;44948;55.046;73.266;2022-10-30T05:44:18;100920.13;;;-1.69;68.02
59168;BME280;44948;55.046;73.266;2022-10-30T05:46:01;100885.16;;;-1.84;68.50
59168;BME280;44948;55.046;73.266;2022-10-30T05:49:38;100908.19;;;-1.75;68.65
59168;BME280;44948;55.046;73.266;2022-10-30T05:51:25;100912.44;;;-1.71;68.79
59168;BME280;44948;55.046;73.266;2022-10-30T05:53:12;100908.19;;;-1.75;68.71
59168;BME280;44948;55.046;73.266;2022-10-30T05:54:55;100911.75;;;-1.88;68.42
59168;BME280;44948;55.046;73.266;2022-10-30T05:57:00;100914.44;;;-2.00;68.84
59168;BME280;44948;55.046;73.266;2022-10-30T05:58:44;100913.59;;;-2.02;68.79
59168;BME280;44948;55.046;73.266;2022-10-30T06:00:29;100879.53;;;-2.26;69.43
59168;BME280;44948;55.046;73.266;2022-10-30T06:02:12;100904.28;;;-2.14;68.85
59168;BME280;44948;55.046;73.266;2022-10-30T06:03:56;100903.38;;;-2.08;69.40
59168;BME280;44948;55.046;73.266;2022-10-30T06:05:38;100900.13;;;-2.29;69.56
59168;BME280;44948;55.046;73.266;2022-10-30T06:07:21;100901.75;;;-2.22;69.89
59168;BME280;44948;55.046;73.266;2022-10-30T06:09:04;100904.31;;;-2.18;70.01
59168;BME280;44948;55.046;73.266;2022-10-30T06:11:01;100897.50;;;-2.23;69.83
59168;BME280;44948;55.046;73.266;2022-10-30T06:12:55;100898.38;;;-2.24;69.53
59168;BME280;44948;55.046;73.266;2022-10-30T06:15:00;100889.09;;;-2.43;69.48
59168;BME280;44948;55.046;73.266;2022-10-30T06:16:43;100886.53;;;-2.43;69.65
59168;BME280;44948;55.046;73.266;2022-10-30T06:18:28;100889.81;;;-2.26;70.28
59168;BME280;44948;55.046;73.266;2022-10-30T06:20:22;100851.28;;;-2.27;70.08
59168;BME280;44948;55.046;73.266;2022-10-30T06:22:20;100880.97;;;-1.94;69.65
59168;BME280;44948;55.046;73.266;2022-10-30T06:24:12;100892.88;;;-1.84;69.39
59168;BME280;44948;55.046;73.266;2022-10-30T06:26:19;100884.19;;;-1.74;68.93
59168;BME280;44948;55.046;73.266;2022-10-30T06:28:06;100879.81;;;-1.64;68.45
59168;BME280;44948;55.046;73.266;2022-10-30T06:29:48;100865.97;;;-1.55;68.74
59168;BME280;44948;55.046;73.266;2022-10-30T06:31:31;100872.84;;;-1.57;68.15
59168;BME280;44948;55.046;73.266;2022-10-30T06:33:15;100862.53;;;-1.56;67.88
59168;BME280;44948;55.046;73.266;2022-10-30T06:35:04;100868.41;;;-1.43;68.06
59168;BME280;44948;55.046;73.266;2022-10-30T06:36:46;100830.22;;;-1.77;67.60
59168;BME280;44948;55.046;73.266;2022-10-30T06:38:29;100834.63;;;-1.88;67.97
59168;BME280;44948;55.046;73.266;2022-10-30T06:40:16;100865.25;;;-1.67;67.74
59168;BME280;44948;55.046;73.266;2022-10-30T06:41:58;100868.59;;;-1.58;68.13
59168;BME280;44948;55.046;73.266;2022-10-30T06:43:59;100853.97;;;-1.55;67.67
59168;BME280;44948;55.046;73.266;2022-10-30T06:45:42;100857.28;;;-1.45;67.19
59168;BME280;44948;55.046;73.266;2022-10-30T06:47:27;100856.41;;;-1.44;66.62
59168;BME280;44948;55.046;73.266;2022-10-30T06:49:12;100854.63;;;-1.39;66.67
59168;BME280;44948;55.046;73.266;2022-10-30T06:50:56;100848.78;;;-1.50;66.75
59168;BME280;44948;55.046;73.266;2022-10-30T06:52:42;100850.47;;;-1.49;67.28
59168;BME280;44948;55.046;73.266;2022-10-30T06:54:24;100815.47;;;-1.61;67.70
59168;BME280;44948;55.046;73.266;2022-10-30T06:56:15;100855.41;;;-1.31;67.49
59168;BME280;44948;55.046;73.266;2022-10-30T06:58:16;100851.13;;;-1.35;66.83
59168;BME280;44948;55.046;73.266;2022-10-30T07:00:08;100850.16;;;-1.25;66.84
59168;BME280;44948;55.046;73.266;2022-10-30T07:02:12;100845.88;;;-1.26;66.76
59168;BME280;44948;55.046;73.266;2022-10-30T07:04:01;100851.00;;;-1.24;66.43
59168;BME280;44948;55.046;73.266;2022-10-30T07:05:43;100844.28;;;-1.33;66.31
59168;BME280;44948;55.046;73.266;2022-10-30T07:07:26;100836.50;;;-1.30;66.06
59168;BME280;44948;55.046;73.266;2022-10-30T07:09:08;100838.03;;;-1.18;66.40
59168;BME280;44948;55.046;73.266;2022-10-30T07:10:51;100827.59;;;-1.08;66.36
59168;BME280;44948;55.046;73.266;2022-10-30T07:12:54;100815.63;;;-1.10;65.91
59168;BME280;44948;55.046;73.266;2022-10-30T07:14:54;100805.28;;;-1.07;66.39
59168;BME280;44948;55.046;73.266;2022-10-30T07:16:47;100824.97;;;-1.05;65.48
59168;BME280;44948;55.046;73.266;2022-10-30T07:18:29;100823.88;;;-0.87;65.79
59168;BME280;44948;55.046;73.266;2022-10-30T07:20:14;100822.09;;;-0.85;65.62
59168;BME280;44948;55.046;73.266;2022-10-30T07:21:56;100788.78;;;-0.94;65.16
59168;BME280;44948;55.046;73.266;2022-10-30T07:23:39;100814.19;;;-0.71;65.41
59168;BME280;44948;55.046;73.266;2022-10-30T07:25:40;100817.78;;;-0.81;64.48
59168;BME280;44948;55.046;73.266;2022-10-30T07:27:48;100794.63;;;-0.83;64.76
59168;BME280;44948;55.046;73.266;2022-10-30T07:30:02;100811.53;;;-0.66;64.66
59168;BME280;44948;55.046;73.266;2022-10-30T07:31:55;100804.56;;;-0.60;64.07
59168;BME280;44948;55.046;73.266;2022-10-30T07:33:59;100808.06;;;-0.64;63.69
59168;BME280;44948;55.046;73.266;2022-10-30T07:36:10;100796.72;;;-0.54;64.13
59168;BME280;44948;55.046;73.266;2022-10-30T07:38:10;100807.03;;;-0.54;63.75
59168;BME280;44948;55.046;73.266;2022-10-30T07:39:59;100800.03;;;-0.46;64.18
59168;BME280;44948;55.046;73.266;2022-10-30T07:42:05;100802.56;;;-0.43;63.68
59168;BME280;44948;55.046;73.266;2022-10-30T07:43:57;100798.16;;;-0.37;63.67
59168;BME280;44948;55.046;73.266;2022-10-30T07:45:58;100795.56;;;-0.37;64.00
59168;BME280;44948;55.046;73.266;2022-10-30T07:47:42;100773.28;;;-0.40;63.72
59168;BME280;44948;55.046;73.266;2022-10-30T07:49:34;100787.91;;;-0.41;63.65
59168;BME280;44948;55.046;73.266;2022-10-30T07:51:22;100753.75;;;-0.52;63.43
59168;BME280;44948;55.046;73.266;2022-10-30T07:53:05;100780.94;;;-0.35;63.37
59168;BME280;44948;55.046;73.266;2022-10-30T07:54:48;100778.50;;;-0.43;62.96
59168;BME280;44948;55.046;73.266;2022-10-30T07:57:03;100781.19;;;-0.48;63.50
59168;BME280;44948;55.046;73.266;2022-10-30T07:59:11;100772.59;;;-0.50;63.78
59168;BME280;44948;55.046;73.266;2022-10-30T08:01:11;100770.75;;;-0.42;64.16
59168;BME280;44948;55.046;73.266;2022-10-30T08:02:57;100733.44;;;-0.70;63.82
59168;BME280;44948;55.046;73.266;2022-10-30T08:05:04;100770.00;;;-0.50;63.99
59168;BME280;44948;55.046;73.266;2022-10-30T08:07:06;100659.47;;;-1.10;64.73
59168;BME280;44948;55.046;73.266;2022-10-30T08:08:48;100775.91;;;-0.42;64.21
59168;BME280;44948;55.046;73.266;2022-10-30T08:10:49;100766.28;;;-0.33;64.21
59168;BME280;44948;55.046;73.266;2022-10-30T08:12:32;100773.94;;;-0.27;64.80
59168;BME280;44948;55.046;73.266;2022-10-30T08:14:15;100764.38;;;-0.22;63.89
59168;BME280;44948;55.046;73.266;2022-10-30T08:15:57;100756.03;;;-0.36;64.06
59168;BME280;44948;55.046;73.266;2022-10-30T08:17:41;100758.25;;;-0.17;64.35
59168;BME280;44948;55.046;73.266;2022-10-30T08:19:24;100769.31;;;-0.10;64.20
59168;BME280;44948;55.046;73.266;2022-10-30T08:21:07;100756.91;;;-0.37;63.82
59168;BME280;44948;55.046;73.266;2022-10-30T08:22:55;100755.16;;;-0.35;63.86
59168;BME280;44948;55.046;73.266;2022-10-30T08:24:39;100748.31;;;-0.36;64.12
59168;BME280;44948;55.046;73.266;2022-10-30T08:26:21;100749.16;;;-0.36;63.83
59168;BME280;44948;55.046;73.266;2022-10-30T08:28:05;100710.88;;;-0.56;64.17
59168;BME280;44948;55.046;73.266;2022-10-30T08:29:52;100736.25;;;-0.34;64.03
59168;BME280;44948;55.046;73.266;2022-10-30T08:31:34;100736.94;;;-0.25;64.09
59168;BME280;44948;55.046;73.266;2022-10-30T08:33:16;100733.28;;;-0.13;64.15
59168;BME280;44948;55.046;73.266;2022-10-30T08:35:09;100725.28;;;-0.01;63.92
59168;BME280;44948;55.046;73.266;2022-10-30T08:36:51;100715.81;;;-0.00;64.01
59168;BME280;44948;55.046;73.266;2022-10-30T08:38:34;100725.41;;;-0.07;63.35
59168;BME280;44948;55.046;73.266;2022-10-30T08:40:43;100721.19;;;-0.11;63.39
59168;BME280;44948;55.046;73.266;2022-10-30T08:42:26;100710.31;;;-0.25;63.07
59168;BME280;44948;55.046;73.266;2022-10-30T08:44:11;100689.13;;;-0.41;63.20
59168;BME280;44948;55.046;73.266;2022-10-30T08:46:20;100698.47;;;-0.35;63.61
59168;BME280;44948;55.046;73.266;2022-10-30T08:48:03;100693.28;;;-0.34;63.93
59168;BME280;44948;55.046;73.266;2022-10-30T08:49:51;100641.34;;;-0.57;63.74
59168;BME280;44948;55.046;73.266;2022-10-30T08:51:36;100651.66;;;-0.57;63.89
59168;BME280;44948;55.046;73.266;2022-10-30T08:53:19;100678.75;;;-0.38;63.93
59168;BME280;44948;55.046;73.266;2022-10-30T08:55:01;100685.41;;;-0.26;63.94
59168;BME280;44948;55.046;73.266;2022-10-30T08:56:44;100679.50;;;-0.31;64.05
59168;BME280;44948;55.046;73.266;2022-10-30T08:58:27;100647.09;;;-0.43;63.87
59168;BME280;44948;55.046;73.266;2022-10-30T09:00:11;100682.91;;;-0.29;63.00
59168;BME280;44948;55.046;73.266;2022-10-30T09:02:12;100558.66;;;-0.88;64.12
59168;BME280;44948;55.046;73.266;2022-10-30T09:04:13;100672.22;;;-0.11;63.60
59168;BME280;44948;55.046;73.266;2022-10-30T09:06:14;100673.03;;;-0.09;63.50
59168;BME280;44948;55.046;73.266;2022-10-30T09:08:14;100673.81;;;-0.05;63.35
59168;BME280;44948;55.046;73.266;2022-10-30T09:10:14;100665.16;;;-0.03;63.10
59168;BME280;44948;55.046;73.266;2022-10-30T09:11:57;100675.16;;;0.12;63.30
59168;BME280;44948;55.046;73.266;2022-10-30T09:13:40;100666.84;;;-0.02;62.84
59168;BME280;44948;55.046;73.266;2022-10-30T09:15:24;100636.28;;;-0.20;63.09
59168;BME280;44948;55.046;73.266;2022-10-30T09:17:10;100656.72;;;-0.10;63.03
59168;BME280;44948;55.046;73.266;2022-10-30T09:18:55;100654.09;;;-0.08;63.24
59168;BME280;44948;55.046;73.266;2022-10-30T09:20:37;100654.09;;;-0.08;62.73
59168;BME280;44948;55.046;73.266;2022-10-30T09:22:20;100648.31;;;-0.19;62.71
59168;BME280;44948;55.046;73.266;2022-10-30T09:24:03;100643.78;;;-0.08;62.50
59168;BME280;44948;55.046;73.266;2022-10-30T09:25:51;100650.47;;;0.01;63.19
59168;BME280;44948;55.046;73.266;2022-10-30T09:27:53;100638.00;;;-0.19;62.52
59168;BME280;44948;55.046;73.266;2022-10-30T09:29:38;100645.88;;;-0.25;62.91
59168;BME280;44948;55.046;73.266;2022-10-30T09:31:34;100642.41;;;-0.24;62.06
59168;BME280;44948;55.046;73.266;2022-10-30T09:33:22;100641.53;;;-0.23;62.48
59168;BME280;44948;55.046;73.266;2022-10-30T09:35:23;100634.66;;;-0.24;61.86
59168;BME280;44948;55.046;73.266;2022-10-30T09:37:06;100638.50;;;-0.44;62.02
59168;BME280;44948;55.046;73.266;2022-10-30T09:38:51;100637.50;;;-0.36;62.60